sensor_id;sensor_type;location;lat;lon;timestamp;temperature;humidity
21163;DHT22;10739;52.198;20.908;2022-09-25T00:00:59;8.00;99.90
21163;DHT22;10739;52.198;20.908;2022-09-25T00:03:27;7.90;99.90
21163;DHT22;10739;52.198;20.908;2022-09-25T00:06:27;7.90;99.90
21163;DHT22;10739;52.198;20.908;2022-09-25T00:08:55;7.90;99.90
21163;DHT22;10739;52.198;20.908;2022-09-25T00:11:28;7.80;99.90
21163;DHT22;10739;52.198;20.908;2022-09-25T00:13:58;7.80;99.90
21163;DHT22;10739;52.198;20.908;2022-09-25T00:16:28;7.70;99.90
21163;DHT22;10739;52.198;20.908;2022-09-25T00:18:57;7.70;99.90
21163;DHT22;10739;52.198;20.908;2022-09-25T00:21:43;7.60;99.90
21163;DHT22;10739;52.198;20.908;2022-09-25T00:24:11;7.60;99.90
21163;DHT22;10739;52.198;20.908;2022-09-25T00:26:41;7.60;99.90
21163;DHT22;10739;52.198;20.908;2022-09-25T00:29:15;7.60;99.90
21163;DHT22;10739;52.198;20.908;2022-09-25T00:31:43;7.50;99.90
21163;DHT22;10739;52.198;20.908;2022-09-25T00:34:09;7.50;99.90
21163;DHT22;10739;52.198;20.908;2022-09-25T00:36:36;7.50;99.90
21163;DHT22;10739;52.198;20.908;2022-09-25T00:39:03;7.40;99.90
21163;DHT22;10739;52.198;20.908;2022-09-25T00:41:29;7.40;99.90
21163;DHT22;10739;52.198;20.908;2022-09-25T00:43:57;7.40;99.90
21163;DHT22;10739;52.198;20.908;2022-09-25T00:54:22;7.30;99.90
21163;DHT22;10739;52.198;20.908;2022-09-25T00:56:53;7.30;99.90
21163;DHT22;10739;52.198;20.908;2022-09-25T00:59:26;7.30;99.90
21163;DHT22;10739;52.198;20.908;2022-09-25T01:01:56;7.30;99.90
21163;DHT22;10739;52.198;20.908;2022-09-25T01:04:27;7.30;99.90
21163;DHT22;10739;52.198;20.908;2022-09-25T01:06:58;7.30;99.90
21163;DHT22;10739;52.198;20.908;2022-09-25T01:09:24;7.30;99.90
21163;DHT22;10739;52.198;20.908;2022-09-25T01:11:51;7.30;99.90
21163;DHT22;10739;52.198;20.908;2022-09-25T01:14:19;7.30;99.90
21163;DHT22;10739;52.198;20.908;2022-09-25T01:20:21;7.30;99.90
21163;DHT22;10739;52.198;20.908;2022-09-25T01:28:44;7.30;99.90
21163;DHT22;10739;52.198;20.908;2022-09-25T01:31:28;7.30;99.90
21163;DHT22;10739;52.198;20.908;2022-09-25T01:34:25;7.30;99.90
21163;DHT22;10739;52.198;20.908;2022-09-25T01:42:47;7.30;99.90
21163;DHT22;10739;52.198;20.908;2022-09-25T01:45:27;7.30;99.90
21163;DHT22;10739;52.198;20.908;2022-09-25T01:48:00;7.30;99.90
21163;DHT22;10739;52.198;20.908;2022-09-25T01:50:44;7.20;99.90
21163;DHT22;10739;52.198;20.908;2022-09-25T01:53:20;7.20;99.90
21163;DHT22;10739;52.198;20.908;2022-09-25T01:56:00;7.10;99.90
21163;DHT22;10739;52.198;20.908;2022-09-25T01:58:45;7.10;99.90
21163;DHT22;10739;52.198;20.908;2022-09-25T02:01:27;7.10;99.90
21163;DHT22;10739;52.198;20.908;2022-09-25T02:04:00;7.00;99.90
21163;DHT22;10739;52.198;20.908;2022-09-25T02:06:31;7.00;99.90
21163;DHT22;10739;52.198;20.908;2022-09-25T02:09:05;7.00;99.90
21163;DHT22;10739;52.198;20.908;2022-09-25T02:11:43;7.00;99.90
21163;DHT22;10739;52.198;20.908;2022-09-25T02:14:26;6.90;99.90
21163;DHT22;10739;52.198;20.908;2022-09-25T02:17:00;6.90;99.90
21163;DHT22;10739;52.198;20.908;2022-09-25T02:19:29;6.90;99.90
21163;DHT22;10739;52.198;20.908;2022-09-25T02:22:19;6.90;99.90
21163;DHT22;10739;52.198;20.908;2022-09-25T02:24:52;6.90;99.90
21163;DHT22;10739;52.198;20.908;2022-09-25T02:27:24;6.90;99.90
21163;DHT22;10739;52.198;20.908;2022-09-25T02:29:52;6.90;99.90
21163;DHT22;10739;52.198;20.908;2022-09-25T02:32:32;7.00;99.90
21163;DHT22;10739;52.198;20.908;2022-09-25T02:34:59;7.00;99.90
21163;DHT22;10739;52.198;20.908;2022-09-25T02:37:28;7.00;99.90
21163;DHT22;10739;52.198;20.908;2022-09-25T02:39:57;7.00;99.90
21163;DHT22;10739;52.198;20.908;2022-09-25T02:54:01;6.70;99.90
21163;DHT22;10739;52.198;20.908;2022-09-25T02:56:54;6.70;99.90
21163;DHT22;10739;52.198;20.908;2022-09-25T02:59:31;6.60;99.90
21163;DHT22;10739;52.198;20.908;2022-09-25T03:02:01;6.60;99.90
21163;DHT22;10739;52.198;20.908;2022-09-25T03:04:29;6.50;99.90
21163;DHT22;10739;52.198;20.908;2022-09-25T03:07:00;6.50;99.90
21163;DHT22;10739;52.198;20.908;2022-09-25T03:09:29;6.50;99.90
21163;DHT22;10739;52.198;20.908;2022-09-25T03:12:01;6.50;99.90
21163;DHT22;10739;52.198;20.908;2022-09-25T03:14:30;6.50;99.90
21163;DHT22;10739;52.198;20.908;2022-09-25T03:16:59;6.40;99.90
21163;DHT22;10739;52.198;20.908;2022-09-25T03:19:29;6.50;99.90
21163;DHT22;10739;52.198;20.908;2022-09-25T03:21:56;6.50;99.90
21163;DHT22;10739;52.198;20.908;2022-09-25T03:24:22;6.50;99.90
21163;DHT22;10739;52.198;20.908;2022-09-25T03:26:48;6.50;99.90
21163;DHT22;10739;52.198;20.908;2022-09-25T03:29:15;6.40;99.90
21163;DHT22;10739;52.198;20.908;2022-09-25T03:31:42;6.40;99.90
21163;DHT22;10739;52.198;20.908;2022-09-25T03:34:14;6.40;99.90
21163;DHT22;10739;52.198;20.908;2022-09-25T03:36:41;6.40;99.90
21163;DHT22;10739;52.198;20.908;2022-09-25T03:39:13;6.40;99.90
21163;DHT22;10739;52.198;20.908;2022-09-25T03:41:42;6.40;99.90
21163;DHT22;10739;52.198;20.908;2022-09-25T03:44:09;6.40;99.90
21163;DHT22;10739;52.198;20.908;2022-09-25T03:46:35;6.30;99.90
21163;DHT22;10739;52.198;20.908;2022-09-25T03:49:03;6.30;99.90
21163;DHT22;10739;52.198;20.908;2022-09-25T03:51:31;6.30;99.90
21163;DHT22;10739;52.198;20.908;2022-09-25T03:53:58;6.30;99.90
21163;DHT22;10739;52.198;20.908;2022-09-25T03:56:26;6.30;99.90
21163;DHT22;10739;52.198;20.908;2022-09-25T03:58:55;6.40;99.90
21163;DHT22;10739;52.198;20.908;2022-09-25T04:01:24;6.30;99.90
21163;DHT22;10739;52.198;20.908;2022-09-25T04:03:52;6.30;99.90
21163;DHT22;10739;52.198;20.908;2022-09-25T04:06:21;6.30;99.90
21163;DHT22;10739;52.198;20.908;2022-09-25T04:08:50;6.40;99.90
21163;DHT22;10739;52.198;20.908;2022-09-25T04:11:19;6.30;99.90
21163;DHT22;10739;52.198;20.908;2022-09-25T04:13:47;6.30;99.90
21163;DHT22;10739;52.198;20.908;2022-09-25T04:16:14;6.30;99.90
21163;DHT22;10739;52.198;20.908;2022-09-25T04:18:42;6.30;99.90
21163;DHT22;10739;52.198;20.908;2022-09-25T04:21:11;6.30;99.90
21163;DHT22;10739;52.198;20.908;2022-09-25T04:23:39;6.40;99.90
21163;DHT22;10739;52.198;20.908;2022-09-25T04:26:06;6.40;99.90
21163;DHT22;10739;52.198;20.908;2022-09-25T04:28:32;6.40;99.90
21163;DHT22;10739;52.198;20.908;2022-09-25T04:30:59;6.40;99.90
21163;DHT22;10739;52.198;20.908;2022-09-25T04:33:27;6.30;99.90
21163;DHT22;10739;52.198;20.908;2022-09-25T04:36:13;6.30;99.90
21163;DHT22;10739;52.198;20.908;2022-09-25T04:38:40;6.30;99.90
21163;DHT22;10739;52.198;20.908;2022-09-25T04:41:07;6.40;99.90
21163;DHT22;10739;52.198;20.908;2022-09-25T04:43:33;6.40;99.90
21163;DHT22;10739;52.198;20.908;2022-09-25T04:46:04;6.40;99.90
21163;DHT22;10739;52.198;20.908;2022-09-25T04:48:31;6.40;99.90
21163;DHT22;10739;52.198;20.908;2022-09-25T04:50:59;6.40;99.90
21163;DHT22;10739;52.198;20.908;2022-09-25T04:53:26;6.50;99.90
21163;DHT22;10739;52.198;20.908;2022-09-25T04:56:00;6.50;99.90
21163;DHT22;10739;52.198;20.908;2022-09-25T04:58:27;6.50;99.90
21163;DHT22;10739;52.198;20.908;2022-09-25T05:00:54;6.50;99.90
21163;DHT22;10739;52.198;20.908;2022-09-25T05:03:20;6.60;99.90
21163;DHT22;10739;52.198;20.908;2022-09-25T05:05:46;6.60;99.90
21163;DHT22;10739;52.198;20.908;2022-09-25T05:08:12;6.60;99.90
21163;DHT22;10739;52.198;20.908;2022-09-25T05:10:38;6.60;99.90
21163;DHT22;10739;52.198;20.908;2022-09-25T05:13:05;6.60;99.90
21163;DHT22;10739;52.198;20.908;2022-09-25T05:15:34;6.60;99.90
21163;DHT22;10739;52.198;20.908;2022-09-25T05:18:05;6.70;99.90
21163;DHT22;10739;52.198;20.908;2022-09-25T05:20:36;6.70;99.90
21163;DHT22;10739;52.198;20.908;2022-09-25T05:23:03;6.70;99.90
21163;DHT22;10739;52.198;20.908;2022-09-25T05:25:30;6.70;99.90
21163;DHT22;10739;52.198;20.908;2022-09-25T05:27:58;6.80;99.90
21163;DHT22;10739;52.198;20.908;2022-09-25T05:30:30;6.80;99.90
21163;DHT22;10739;52.198;20.908;2022-09-25T05:32:58;6.90;99.90
21163;DHT22;10739;52.198;20.908;2022-09-25T05:35:27;6.90;99.90
21163;DHT22;10739;52.198;20.908;2022-09-25T05:37:55;7.00;99.90
21163;DHT22;10739;52.198;20.908;2022-09-25T05:40:21;7.10;99.90
21163;DHT22;10739;52.198;20.908;2022-09-25T05:42:49;7.20;99.90
21163;DHT22;10739;52.198;20.908;2022-09-25T05:45:18;7.40;99.90
21163;DHT22;10739;52.198;20.908;2022-09-25T05:47:46;7.50;99.90
21163;DHT22;10739;52.198;20.908;2022-09-25T05:50:14;7.60;99.90
21163;DHT22;10739;52.198;20.908;2022-09-25T05:52:42;7.70;99.90
21163;DHT22;10739;52.198;20.908;2022-09-25T05:55:08;7.80;99.90
21163;DHT22;10739;52.198;20.908;2022-09-25T05:57:36;7.90;99.90
21163;DHT22;10739;52.198;20.908;2022-09-25T06:00:06;8.00;99.90
21163;DHT22;10739;52.198;20.908;2022-09-25T06:02:37;8.00;99.90
21163;DHT22;10739;52.198;20.908;2022-09-25T06:05:04;8.10;99.90
21163;DHT22;10739;52.198;20.908;2022-09-25T06:07:30;8.10;99.90
21163;DHT22;10739;52.198;20.908;2022-09-25T06:09:56;8.10;99.90
21163;DHT22;10739;52.198;20.908;2022-09-25T06:12:22;8.10;99.90
21163;DHT22;10739;52.198;20.908;2022-09-25T06:14:53;8.10;99.90
21163;DHT22;10739;52.198;20.908;2022-09-25T06:17:19;8.20;99.90
21163;DHT22;10739;52.198;20.908;2022-09-25T06:19:45;8.20;99.90
21163;DHT22;10739;52.198;20.908;2022-09-25T06:22:12;8.30;99.90
21163;DHT22;10739;52.198;20.908;2022-09-25T06:24:38;8.40;99.90
21163;DHT22;10739;52.198;20.908;2022-09-25T06:27:05;8.60;99.90
21163;DHT22;10739;52.198;20.908;2022-09-25T06:29:33;8.70;99.90
21163;DHT22;10739;52.198;20.908;2022-09-25T06:32:00;8.70;99.90
21163;DHT22;10739;52.198;20.908;2022-09-25T06:34:27;8.80;99.90
21163;DHT22;10739;52.198;20.908;2022-09-25T06:36:53;9.00;99.90
21163;DHT22;10739;52.198;20.908;2022-09-25T06:39:24;9.10;99.90
21163;DHT22;10739;52.198;20.908;2022-09-25T06:41:52;9.50;99.90
21163;DHT22;10739;52.198;20.908;2022-09-25T06:44:19;9.90;99.90
21163;DHT22;10739;52.198;20.908;2022-09-25T06:46:50;10.40;99.90
21163;DHT22;10739;52.198;20.908;2022-09-25T06:49:19;10.90;99.90
21163;DHT22;10739;52.198;20.908;2022-09-25T06:51:46;11.40;99.90
21163;DHT22;10739;52.198;20.908;2022-09-25T06:54:12;11.80;99.90
21163;DHT22;10739;52.198;20.908;2022-09-25T06:56:39;12.00;99.90
21163;DHT22;10739;52.198;20.908;2022-09-25T06:59:05;12.20;99.90
21163;DHT22;10739;52.198;20.908;2022-09-25T07:01:33;12.30;99.90
21163;DHT22;10739;52.198;20.908;2022-09-25T07:03:59;12.80;99.90
21163;DHT22;10739;52.198;20.908;2022-09-25T07:06:26;12.70;99.90
21163;DHT22;10739;52.198;20.908;2022-09-25T07:08:53;12.40;99.90
21163;DHT22;10739;52.198;20.908;2022-09-25T07:11:26;12.50;99.90
21163;DHT22;10739;52.198;20.908;2022-09-25T07:13:52;12.50;99.90
21163;DHT22;10739;52.198;20.908;2022-09-25T07:16:26;12.60;99.90
21163;DHT22;10739;52.198;20.908;2022-09-25T07:18:55;13.30;99.90
21163;DHT22;10739;52.198;20.908;2022-09-25T07:21:24;13.70;99.90
21163;DHT22;10739;52.198;20.908;2022-09-25T07:23:54;14.10;99.90
21163;DHT22;10739;52.198;20.908;2022-09-25T07:26:23;13.80;99.90
21163;DHT22;10739;52.198;20.908;2022-09-25T07:28:58;13.70;99.90
21163;DHT22;10739;52.198;20.908;2022-09-25T07:31:30;14.00;99.90
21163;DHT22;10739;52.198;20.908;2022-09-25T07:33:59;14.00;99.90
21163;DHT22;10739;52.198;20.908;2022-09-25T07:36:27;13.80;99.90
21163;DHT22;10739;52.198;20.908;2022-09-25T07:38:54;14.00;99.90
21163;DHT22;10739;52.198;20.908;2022-09-25T07:41:21;13.90;99.90
21163;DHT22;10739;52.198;20.908;2022-09-25T07:43:56;14.40;99.90
21163;DHT22;10739;52.198;20.908;2022-09-25T07:46:27;14.50;99.90
21163;DHT22;10739;52.198;20.908;2022-09-25T07:48:53;14.70;99.90
21163;DHT22;10739;52.198;20.908;2022-09-25T07:51:20;14.60;99.90
21163;DHT22;10739;52.198;20.908;2022-09-25T07:53:47;14.60;99.90
21163;DHT22;10739;52.198;20.908;2022-09-25T07:56:13;14.60;99.90
21163;DHT22;10739;52.198;20.908;2022-09-25T07:58:40;14.50;99.90
21163;DHT22;10739;52.198;20.908;2022-09-25T08:01:10;13.90;99.90
21163;DHT22;10739;52.198;20.908;2022-09-25T08:03:37;13.70;99.90
21163;DHT22;10739;52.198;20.908;2022-09-25T08:06:07;14.00;99.90
21163;DHT22;10739;52.198;20.908;2022-09-25T08:08:35;13.60;99.90
21163;DHT22;10739;52.198;20.908;2022-09-25T08:11:06;13.50;99.90
21163;DHT22;10739;52.198;20.908;2022-09-25T08:13:41;13.70;99.90
21163;DHT22;10739;52.198;20.908;2022-09-25T08:16:13;14.10;99.90
21163;DHT22;10739;52.198;20.908;2022-09-25T08:18:43;14.40;99.90
21163;DHT22;10739;52.198;20.908;2022-09-25T08:21:12;14.30;99.90
21163;DHT22;10739;52.198;20.908;2022-09-25T08:23:41;13.80;99.90
21163;DHT22;10739;52.198;20.908;2022-09-25T08:26:07;13.60;99.90
21163;DHT22;10739;52.198;20.908;2022-09-25T08:28:34;13.60;99.90
21163;DHT22;10739;52.198;20.908;2022-09-25T08:31:01;13.70;99.90
21163;DHT22;10739;52.198;20.908;2022-09-25T08:33:29;13.90;99.90
21163;DHT22;10739;52.198;20.908;2022-09-25T08:35:59;14.00;99.90
21163;DHT22;10739;52.198;20.908;2022-09-25T08:38:27;14.20;99.90
21163;DHT22;10739;52.198;20.908;2022-09-25T08:40:58;14.40;99.90
21163;DHT22;10739;52.198;20.908;2022-09-25T08:43:27;14.70;99.90
21163;DHT22;10739;52.198;20.908;2022-09-25T08:45:54;15.30;99.90
21163;DHT22;10739;52.198;20.908;2022-09-25T08:48:56;15.80;99.90
21163;DHT22;10739;52.198;20.908;2022-09-25T08:51:41;16.00;99.90
21163;DHT22;10739;52.198;20.908;2022-09-25T08:54:30;17.10;99.90
21163;DHT22;10739;52.198;20.908;2022-09-25T08:59:50;19.50;99.90
21163;DHT22;10739;52.198;20.908;2022-09-25T09:02:25;19.40;99.90
21163;DHT22;10739;52.198;20.908;2022-09-25T09:05:01;19.40;99.90
21163;DHT22;10739;52.198;20.908;2022-09-25T09:07:35;19.70;99.90
21163;DHT22;10739;52.198;20.908;2022-09-25T09:16:06;19.60;99.90
21163;DHT22;10739;52.198;20.908;2022-09-25T09:18:41;19.20;99.90
21163;DHT22;10739;52.198;20.908;2022-09-25T09:21:38;18.00;99.90
21163;DHT22;10739;52.198;20.908;2022-09-25T09:27:20;17.60;99.90
21163;DHT22;10739;52.198;20.908;2022-09-25T09:36:09;19.20;99.90
21163;DHT22;10739;52.198;20.908;2022-09-25T09:45:04;19.60;99.90
21163;DHT22;10739;52.198;20.908;2022-09-25T09:52:48;20.40;99.90
21163;DHT22;10739;52.198;20.908;2022-09-25T09:58:20;20.50;99.90
21163;DHT22;10739;52.198;20.908;2022-09-25T10:00:52;20.20;99.90
21163;DHT22;10739;52.198;20.908;2022-09-25T10:03:26;20.00;99.90
21163;DHT22;10739;52.198;20.908;2022-09-25T10:05:58;20.30;99.90
21163;DHT22;10739;52.198;20.908;2022-09-25T10:08:28;20.00;99.90
21163;DHT22;10739;52.198;20.908;2022-09-25T10:10:55;20.10;99.90
21163;DHT22;10739;52.198;20.908;2022-09-25T10:13:30;19.00;99.90
21163;DHT22;10739;52.198;20.908;2022-09-25T10:21:42;17.90;99.90
21163;DHT22;10739;52.198;20.908;2022-09-25T10:24:51;17.60;99.90
21163;DHT22;10739;52.198;20.908;2022-09-25T10:27:34;17.10;99.90
21163;DHT22;10739;52.198;20.908;2022-09-25T10:32:50;17.00;99.90
21163;DHT22;10739;52.198;20.908;2022-09-25T10:38:43;16.70;99.90
21163;DHT22;10739;52.198;20.908;2022-09-25T10:41:16;16.60;99.90
21163;DHT22;10739;52.198;20.908;2022-09-25T10:46:33;16.70;99.90
21163;DHT22;10739;52.198;20.908;2022-09-25T10:49:24;16.80;99.90
21163;DHT22;10739;52.198;20.908;2022-09-25T10:52:13;16.70;99.90
21163;DHT22;10739;52.198;20.908;2022-09-25T10:54:43;16.80;99.90
21163;DHT22;10739;52.198;20.908;2022-09-25T10:57:33;16.80;99.90
21163;DHT22;10739;52.198;20.908;2022-09-25T11:00:04;16.90;99.90
21163;DHT22;10739;52.198;20.908;2022-09-25T11:02:44;16.80;99.90
21163;DHT22;10739;52.198;20.908;2022-09-25T11:05:21;16.70;99.90
21163;DHT22;10739;52.198;20.908;2022-09-25T11:08:02;16.80;99.90
21163;DHT22;10739;52.198;20.908;2022-09-25T11:10:34;16.80;99.90
21163;DHT22;10739;52.198;20.908;2022-09-25T11:13:22;16.90;99.90
21163;DHT22;10739;52.198;20.908;2022-09-25T11:16:02;16.90;99.90
21163;DHT22;10739;52.198;20.908;2022-09-25T11:18:43;16.70;99.90
21163;DHT22;10739;52.198;20.908;2022-09-25T11:21:22;16.80;99.90
21163;DHT22;10739;52.198;20.908;2022-09-25T11:30:03;16.90;99.90
21163;DHT22;10739;52.198;20.908;2022-09-25T11:36:02;17.10;99.90
21163;DHT22;10739;52.198;20.908;2022-09-25T11:38:53;17.20;99.90
21163;DHT22;10739;52.198;20.908;2022-09-25T11:47:21;17.30;99.90
21163;DHT22;10739;52.198;20.908;2022-09-25T11:49:53;17.30;99.90
21163;DHT22;10739;52.198;20.908;2022-09-25T12:01:22;17.30;99.90
21163;DHT22;10739;52.198;20.908;2022-09-25T12:04:19;17.30;99.90
21163;DHT22;10739;52.198;20.908;2022-09-25T12:07:08;17.40;99.90
21163;DHT22;10739;52.198;20.908;2022-09-25T12:18:11;17.20;99.90
21163;DHT22;10739;52.198;20.908;2022-09-25T12:26:51;17.50;99.90
21163;DHT22;10739;52.198;20.908;2022-09-25T12:29:46;17.50;99.90
21163;DHT22;10739;52.198;20.908;2022-09-25T12:39:03;17.30;99.90
21163;DHT22;10739;52.198;20.908;2022-09-25T12:41:33;17.20;99.90
21163;DHT22;10739;52.198;20.908;2022-09-25T12:44:48;17.20;99.90
21163;DHT22;10739;52.198;20.908;2022-09-25T12:50:18;17.50;99.90
21163;DHT22;10739;52.198;20.908;2022-09-25T12:53:01;17.70;99.90
21163;DHT22;10739;52.198;20.908;2022-09-25T12:55:41;17.70;99.90
21163;DHT22;10739;52.198;20.908;2022-09-25T12:58:17;17.60;99.90
21163;DHT22;10739;52.198;20.908;2022-09-25T13:01:00;17.40;99.90
21163;DHT22;10739;52.198;20.908;2022-09-25T13:04:00;17.40;99.90
21163;DHT22;10739;52.198;20.908;2022-09-25T13:07:12;17.50;99.90
21163;DHT22;10739;52.198;20.908;2022-09-25T13:09:43;17.60;99.90
21163;DHT22;10739;52.198;20.908;2022-09-25T13:12:31;17.80;99.90
21163;DHT22;10739;52.198;20.908;2022-09-25T13:15:08;17.90;99.90
21163;DHT22;10739;52.198;20.908;2022-09-25T13:17:37;18.00;99.90
21163;DHT22;10739;52.198;20.908;2022-09-25T13:25:46;17.80;99.90
21163;DHT22;10739;52.198;20.908;2022-09-25T13:28:33;17.80;99.90
21163;DHT22;10739;52.198;20.908;2022-09-25T13:31:27;17.90;99.90
21163;DHT22;10739;52.198;20.908;2022-09-25T13:39:00;17.90;99.90
21163;DHT22;10739;52.198;20.908;2022-09-25T13:41:58;17.90;99.90
21163;DHT22;10739;52.198;20.908;2022-09-25T13:55:17;18.30;99.90
21163;DHT22;10739;52.198;20.908;2022-09-25T14:00:26;18.40;99.90
21163;DHT22;10739;52.198;20.908;2022-09-25T14:03:27;18.40;99.90
21163;DHT22;10739;52.198;20.908;2022-09-25T14:08:59;18.10;99.90
21163;DHT22;10739;52.198;20.908;2022-09-25T14:11:32;17.80;99.90
21163;DHT22;10739;52.198;20.908;2022-09-25T14:14:08;17.70;99.90
21163;DHT22;10739;52.198;20.908;2022-09-25T14:16:48;17.60;99.90
21163;DHT22;10739;52.198;20.908;2022-09-25T14:19:23;17.60;99.90
21163;DHT22;10739;52.198;20.908;2022-09-25T14:21:54;17.60;99.90
21163;DHT22;10739;52.198;20.908;2022-09-25T14:24:25;17.50;99.90
21163;DHT22;10739;52.198;20.908;2022-09-25T14:27:00;17.50;99.90
21163;DHT22;10739;52.198;20.908;2022-09-25T14:29:39;17.50;99.90
21163;DHT22;10739;52.198;20.908;2022-09-25T14:32:29;17.50;99.90
21163;DHT22;10739;52.198;20.908;2022-09-25T14:42:31;17.20;99.90
21163;DHT22;10739;52.198;20.908;2022-09-25T14:47:59;17.30;99.90
21163;DHT22;10739;52.198;20.908;2022-09-25T14:50:46;17.30;99.90
21163;DHT22;10739;52.198;20.908;2022-09-25T14:53:27;17.30;99.90
21163;DHT22;10739;52.198;20.908;2022-09-25T14:56:09;17.30;99.90
21163;DHT22;10739;52.198;20.908;2022-09-25T14:58:44;17.30;99.90
21163;DHT22;10739;52.198;20.908;2022-09-25T15:01:29;17.20;99.90
21163;DHT22;10739;52.198;20.908;2022-09-25T15:04:02;17.20;99.90
21163;DHT22;10739;52.198;20.908;2022-09-25T15:06:33;17.20;99.90
21163;DHT22;10739;52.198;20.908;2022-09-25T15:09:01;17.20;99.90
21163;DHT22;10739;52.198;20.908;2022-09-25T15:11:42;17.20;99.90
21163;DHT22;10739;52.198;20.908;2022-09-25T15:14:12;17.10;99.90
21163;DHT22;10739;52.198;20.908;2022-09-25T15:16:43;17.00;99.90
21163;DHT22;10739;52.198;20.908;2022-09-25T15:19:32;16.90;99.90
21163;DHT22;10739;52.198;20.908;2022-09-25T15:22:14;16.90;99.90
21163;DHT22;10739;52.198;20.908;2022-09-25T15:24:48;16.90;99.90
21163;DHT22;10739;52.198;20.908;2022-09-25T15:27:23;16.60;99.90
21163;DHT22;10739;52.198;20.908;2022-09-25T15:29:51;16.50;99.90
21163;DHT22;10739;52.198;20.908;2022-09-25T15:32:25;16.50;99.90
21163;DHT22;10739;52.198;20.908;2022-09-25T15:37:35;16.30;99.90
21163;DHT22;10739;52.198;20.908;2022-09-25T15:40:25;16.20;99.90
21163;DHT22;10739;52.198;20.908;2022-09-25T15:42:55;16.20;99.90
21163;DHT22;10739;52.198;20.908;2022-09-25T15:48:32;16.00;99.90
21163;DHT22;10739;52.198;20.908;2022-09-25T15:51:13;15.90;99.90
21163;DHT22;10739;52.198;20.908;2022-09-25T15:53:56;15.90;99.90
21163;DHT22;10739;52.198;20.908;2022-09-25T15:56:37;15.80;99.90
21163;DHT22;10739;52.198;20.908;2022-09-25T16:01:48;15.70;99.90
21163;DHT22;10739;52.198;20.908;2022-09-25T16:04:34;15.60;99.90
21163;DHT22;10739;52.198;20.908;2022-09-25T16:07:32;15.50;99.90
21163;DHT22;10739;52.198;20.908;2022-09-25T16:10:04;15.50;99.90
21163;DHT22;10739;52.198;20.908;2022-09-25T16:12:51;15.40;99.90
21163;DHT22;10739;52.198;20.908;2022-09-25T16:17:52;15.40;99.90
21163;DHT22;10739;52.198;20.908;2022-09-25T16:22:53;15.30;99.90
21163;DHT22;10739;52.198;20.908;2022-09-25T16:25:28;15.20;99.90
21163;DHT22;10739;52.198;20.908;2022-09-25T16:30:35;15.10;99.90
21163;DHT22;10739;52.198;20.908;2022-09-25T16:33:17;15.00;99.90
21163;DHT22;10739;52.198;20.908;2022-09-25T16:35:48;14.90;99.90
21163;DHT22;10739;52.198;20.908;2022-09-25T16:41:25;14.90;99.90
21163;DHT22;10739;52.198;20.908;2022-09-25T16:46:45;14.70;99.90
21163;DHT22;10739;52.198;20.908;2022-09-25T16:49:33;14.60;99.90
21163;DHT22;10739;52.198;20.908;2022-09-25T16:52:02;14.50;99.90
21163;DHT22;10739;52.198;20.908;2022-09-25T16:54:30;14.50;99.90
21163;DHT22;10739;52.198;20.908;2022-09-25T16:56:58;14.40;99.90
21163;DHT22;10739;52.198;20.908;2022-09-25T16:59:27;14.40;99.90
21163;DHT22;10739;52.198;20.908;2022-09-25T17:01:56;14.40;99.90
21163;DHT22;10739;52.198;20.908;2022-09-25T17:04:28;14.30;99.90
21163;DHT22;10739;52.198;20.908;2022-09-25T17:06:56;14.20;99.90
21163;DHT22;10739;52.198;20.908;2022-09-25T17:09:27;14.20;99.90
21163;DHT22;10739;52.198;20.908;2022-09-25T17:12:05;14.10;99.90
21163;DHT22;10739;52.198;20.908;2022-09-25T17:14:38;14.00;99.90
21163;DHT22;10739;52.198;20.908;2022-09-25T17:17:04;14.00;99.90
21163;DHT22;10739;52.198;20.908;2022-09-25T17:19:31;13.90;99.90
21163;DHT22;10739;52.198;20.908;2022-09-25T17:21:57;13.90;99.90
21163;DHT22;10739;52.198;20.908;2022-09-25T17:24:25;13.80;99.90
21163;DHT22;10739;52.198;20.908;2022-09-25T17:26:52;13.80;99.90
21163;DHT22;10739;52.198;20.908;2022-09-25T17:29:19;13.70;99.90
21163;DHT22;10739;52.198;20.908;2022-09-25T17:31:46;13.70;99.90
21163;DHT22;10739;52.198;20.908;2022-09-25T17:36:49;13.60;99.90
21163;DHT22;10739;52.198;20.908;2022-09-25T17:39:16;13.60;99.90
21163;DHT22;10739;52.198;20.908;2022-09-25T17:41:42;13.50;99.90
21163;DHT22;10739;52.198;20.908;2022-09-25T17:44:16;13.50;99.90
21163;DHT22;10739;52.198;20.908;2022-09-25T17:46:46;13.50;99.90
21163;DHT22;10739;52.198;20.908;2022-09-25T17:49:12;13.50;99.90
21163;DHT22;10739;52.198;20.908;2022-09-25T17:51:39;13.50;99.90
21163;DHT22;10739;52.198;20.908;2022-09-25T17:54:08;13.50;99.90
21163;DHT22;10739;52.198;20.908;2022-09-25T17:56:36;13.50;99.90
21163;DHT22;10739;52.198;20.908;2022-09-25T17:59:05;13.40;99.90
21163;DHT22;10739;52.198;20.908;2022-09-25T18:01:34;13.40;99.90
21163;DHT22;10739;52.198;20.908;2022-09-25T18:04:08;13.40;99.90
21163;DHT22;10739;52.198;20.908;2022-09-25T18:06:48;13.30;99.90
21163;DHT22;10739;52.198;20.908;2022-09-25T18:09:15;13.30;99.90
21163;DHT22;10739;52.198;20.908;2022-09-25T18:11:41;13.30;99.90
21163;DHT22;10739;52.198;20.908;2022-09-25T18:14:10;13.30;99.90
21163;DHT22;10739;52.198;20.908;2022-09-25T18:16:42;13.20;99.90
21163;DHT22;10739;52.198;20.908;2022-09-25T18:19:15;13.20;99.90
21163;DHT22;10739;52.198;20.908;2022-09-25T18:22:01;13.20;99.90
21163;DHT22;10739;52.198;20.908;2022-09-25T18:24:45;13.20;99.90
21163;DHT22;10739;52.198;20.908;2022-09-25T18:27:17;13.10;99.90
21163;DHT22;10739;52.198;20.908;2022-09-25T18:29:44;13.10;99.90
21163;DHT22;10739;52.198;20.908;2022-09-25T18:32:12;13.10;99.90
21163;DHT22;10739;52.198;20.908;2022-09-25T18:34:39;13.10;99.90
21163;DHT22;10739;52.198;20.908;2022-09-25T18:37:08;13.10;99.90
21163;DHT22;10739;52.198;20.908;2022-09-25T18:39:34;13.10;99.90
21163;DHT22;10739;52.198;20.908;2022-09-25T18:42:01;13.10;99.90
21163;DHT22;10739;52.198;20.908;2022-09-25T18:44:28;13.10;99.90
21163;DHT22;10739;52.198;20.908;2022-09-25T18:46:55;13.10;99.90
21163;DHT22;10739;52.198;20.908;2022-09-25T18:49:21;13.10;99.90
21163;DHT22;10739;52.198;20.908;2022-09-25T18:51:49;13.10;99.90
21163;DHT22;10739;52.198;20.908;2022-09-25T18:54:15;13.10;99.90
21163;DHT22;10739;52.198;20.908;2022-09-25T18:56:42;13.10;99.90
21163;DHT22;10739;52.198;20.908;2022-09-25T18:59:08;13.10;99.90
21163;DHT22;10739;52.198;20.908;2022-09-25T19:01:35;13.10;99.90
21163;DHT22;10739;52.198;20.908;2022-09-25T19:04:02;13.00;99.90
21163;DHT22;10739;52.198;20.908;2022-09-25T19:06:30;13.00;99.90
21163;DHT22;10739;52.198;20.908;2022-09-25T19:08:57;13.00;99.90